RPi & Temperatures at JO21ut

Last graph updates: Wednesday 21 August 2019 18:02 CEST

Sunrise: 06:30 & Sunset: 20:50 The Sun is currently visible at an elevation of 24.11 degrees and azimut of 259 and 151323038 Km from the Earth
Moonrise: 23:19 & Moonset: 12:28 Last Quarter Moon The Moon is 396310 Km from the Earth
Find here more details on MARS.

18:05:11 up 6 days, 22:06, 0 users, load average: 2.54, 1.72, 1.30
Current CPU frequency is: 1000 Mhz
Current GPU temperature: 34.166°C
Current inside temperature is 21.74°C with a humidity of 53.36%
Second inside temperature is 22°C with a pressure of 1022.93 Hpa (29.97 inHg) and an uncorrected altitude of -81.11 m
ds18b20 now showing 22.3°C

All the sensors I use, DHT22 | BMP085 | MPU6050 | BH1750FVI | MMA7455 | HMC5883L | MPL3115A2 | DS1307 | HTU21 | AM2321 | DS3231 | INA219 | LM75A , and it's current readout can be viewed here please be patient as it needs to read all sensors data. The page loads after about 10 seconds. In our forum more details can be found such as the used software/sources. Feel free to add yours also..


Pressure BMP085
Pressure BMP085
Pressure BMP085
Pressure BMP085
PI CPU Temp
Inet Volkel temp
Inside temp BMP085
Humidity BMP085
PI CPU Temp
Inet Volkel temp
Inside temp BMP085
Humidity BMP085
PI CPU Temp
Inet Volkel temp
Inside temp BMP085
Humidity BMP085
PI CPU Temp
Inet Volkel temp
Inside temp BMP085
Humidity BMP085
PI CPU Temp
Inet Volkel temp
Inside temp BMP085
Humidity BMP085
Inside light BH1750FV
Inside light BH1750FV
Inside light BH1750FV
Inside light BH1750FV
Inside light BH1750FV
Inside light BH1750FV
Sunlight hours
 

Sun & Moon height


Wijchen weather

Weer Widget
ScreenSaver yr.no

Sun Moon Earth


EHEH 211555Z AUTO VRB02KT 9999 OVC220 23/07 Q1026 BLU VRB04 CAVOK EHEH 211555Z AUTO VRB02KT 9999 OVC220 23/07 Q1026 BLU VRB04 CAVOK EHEH 211555Z AUTO VRB02KT 9999 OVC220 23/07 Q1026 BLU VRB04 CAVOK

Weather data from Volkel [NL] EHVK


10 minutes ago, at 15:55 UTC, the wind was blowing at a speed of 1.0 meters per second (2.3 miles per hour/2 knots) from variable directions (variable directions) in Volkel [EHVK], Netherlands. The temperature was 23 °C (73 °F) with a dewpoint of 7 °C (45 °F), and the pressure was 1,026 hPa (30.30 inHg). The relative humidity was 35.7%. There are no clouds below 1,524 meter (5,000 feet). The visibility was >10 kilometers (>6.2 miles).




View code:

Contact me  |  My Raspberry PI forum